createdAt,value
2023-03-29T00:00:49.757Z,1.33
2023-03-29T00:03:17.040Z,0.85
2023-03-29T00:05:44.793Z,1.23
2023-03-29T00:08:14.383Z,1.20
2023-03-29T00:10:41.910Z,1.02
2023-03-29T00:13:08.399Z,1.20
2023-03-29T00:15:34.817Z,1.10
2023-03-29T00:18:01.351Z,1.20
2023-03-29T00:20:28.967Z,1.10
2023-03-29T00:22:55.730Z,1.30
2023-03-29T00:25:22.220Z,1.63
2023-03-29T00:27:48.787Z,1.30
2023-03-29T00:30:16.004Z,1.30
2023-03-29T00:32:42.852Z,1.52
2023-03-29T00:35:10.029Z,1.20
2023-03-29T00:37:36.493Z,1.15
2023-03-29T00:40:07.707Z,1.25
2023-03-29T00:42:34.094Z,1.55
2023-03-29T00:45:04.078Z,1.20
2023-03-29T00:47:39.530Z,1.58
2023-03-29T00:50:17.667Z,1.30
2023-03-29T00:52:51.186Z,1.17
2023-03-29T00:55:19.259Z,1.33
2023-03-29T00:57:46.769Z,1.40
2023-03-29T01:02:42.299Z,1.33
2023-03-29T01:05:11.584Z,1.30
2023-03-29T01:07:41.896Z,1.38
2023-03-29T01:10:09.212Z,1.20
2023-03-29T01:12:42.213Z,1.30
2023-03-29T01:15:13.977Z,1.38
2023-03-29T01:17:50.357Z,1.30
2023-03-29T01:20:22.164Z,1.40
2023-03-29T01:22:51.379Z,1.20
2023-03-29T01:25:27.792Z,1.27
2023-03-29T01:27:57.289Z,1.30
2023-03-29T01:30:31.933Z,1.30
2023-03-29T01:32:59.226Z,1.20
2023-03-29T01:35:38.403Z,1.38
2023-03-29T01:38:28.130Z,1.40
2023-03-29T01:40:54.600Z,1.42
2023-03-29T01:43:30.831Z,1.33
2023-03-29T01:45:57.243Z,1.40
2023-03-29T01:48:29.242Z,1.20
2023-03-29T01:50:58.382Z,1.20
2023-03-29T01:53:36.722Z,1.50
2023-03-29T01:56:21.627Z,1.27
2023-03-29T01:58:52.566Z,1.40
2023-03-29T02:01:21.356Z,1.70
2023-03-29T02:03:50.007Z,1.30
2023-03-29T02:06:21.060Z,1.33
2023-03-29T02:08:47.941Z,1.67
2023-03-29T02:11:14.475Z,1.40
2023-03-29T02:13:40.970Z,1.30
2023-03-29T02:16:14.900Z,1.60
2023-03-29T02:18:43.756Z,1.40
2023-03-29T02:21:11.771Z,1.40
2023-03-29T02:23:46.642Z,1.50
2023-03-29T02:26:14.403Z,1.60
2023-03-29T02:31:10.267Z,1.50
2023-03-29T02:33:45.990Z,1.33
2023-03-29T02:36:20.943Z,1.38
2023-03-29T02:38:47.603Z,1.48
2023-03-29T02:41:16.460Z,1.70
2023-03-29T02:43:43.173Z,1.35
2023-03-29T02:46:10.908Z,1.30
2023-03-29T02:48:37.618Z,1.30
2023-03-29T02:51:08.632Z,1.33
2023-03-29T02:53:42.272Z,1.40
2023-03-29T02:58:36.628Z,1.60
2023-03-29T03:01:05.472Z,1.50
2023-03-29T03:03:32.033Z,1.88
2023-03-29T03:06:01.667Z,1.60
2023-03-29T03:08:29.833Z,1.50
2023-03-29T03:10:56.348Z,1.30
2023-03-29T03:13:22.738Z,1.50
2023-03-29T03:15:49.373Z,1.63
2023-03-29T03:18:16.850Z,1.50
2023-03-29T03:20:46.853Z,1.30
2023-03-29T03:23:13.319Z,1.60
2023-03-29T03:25:39.841Z,1.60
2023-03-29T03:28:06.380Z,1.90
2023-03-29T03:30:33.870Z,1.70
2023-03-29T03:33:19.336Z,1.40
2023-03-29T03:36:06.173Z,1.45
2023-03-29T03:38:36.027Z,1.42
2023-03-29T03:41:02.868Z,1.20
2023-03-29T03:43:33.068Z,1.60
2023-03-29T03:45:59.915Z,1.88
2023-03-29T03:48:27.004Z,1.50
2023-03-29T03:53:35.016Z,1.55
2023-03-29T03:56:13.975Z,1.80
2023-03-29T03:58:59.023Z,1.65
2023-03-29T04:01:28.158Z,1.80
2023-03-29T04:04:11.192Z,1.70
2023-03-29T04:06:39.417Z,2.30
2023-03-29T04:09:31.208Z,1.83
2023-03-29T04:12:12.241Z,1.52
2023-03-29T04:14:40.603Z,1.40
2023-03-29T04:17:11.088Z,1.70
2023-03-29T04:19:58.156Z,1.50
2023-03-29T04:22:26.977Z,1.55
2023-03-29T04:24:53.732Z,1.65
2023-03-29T04:27:26.338Z,1.80
2023-03-29T04:29:53.092Z,1.45
2023-03-29T04:32:27.633Z,1.83
2023-03-29T04:35:05.045Z,1.48
2023-03-29T04:37:32.306Z,1.70
2023-03-29T04:40:04.405Z,1.80
2023-03-29T04:42:43.583Z,1.50
2023-03-29T04:45:10.649Z,1.45
2023-03-29T04:48:02.094Z,1.60
2023-03-29T04:50:29.196Z,1.50
2023-03-29T04:52:56.529Z,1.50
2023-03-29T04:55:23.025Z,1.60
2023-03-29T04:57:58.974Z,1.77
2023-03-29T05:00:35.332Z,1.50
2023-03-29T05:03:24.670Z,1.48
2023-03-29T05:06:14.002Z,1.67
2023-03-29T05:08:41.058Z,1.83
2023-03-29T05:11:21.283Z,1.70
2023-03-29T05:13:47.756Z,1.80
2023-03-29T05:16:15.838Z,1.45
2023-03-29T05:18:42.887Z,1.40
2023-03-29T05:21:10.095Z,1.60
2023-03-29T05:23:38.256Z,1.80
2023-03-29T05:26:09.715Z,1.60
2023-03-29T05:28:37.282Z,1.80
2023-03-29T05:31:05.755Z,1.67
2023-03-29T05:33:35.397Z,1.70
2023-03-29T05:36:08.171Z,1.80
2023-03-29T05:38:38.298Z,1.45
2023-03-29T05:41:06.698Z,1.48
2023-03-29T05:43:33.277Z,1.50
2023-03-29T05:46:00.300Z,1.48
2023-03-29T05:48:29.298Z,1.50
2023-03-29T05:50:56.391Z,1.98
2023-03-29T05:53:23.658Z,1.67
2023-03-29T05:55:51.276Z,1.63
2023-03-29T05:58:20.236Z,1.52
2023-03-29T06:00:49.589Z,1.60
2023-03-29T06:03:35.292Z,1.85
2023-03-29T06:06:03.832Z,1.63
2023-03-29T06:08:32.202Z,1.70
2023-03-29T06:11:17.690Z,1.40
2023-03-29T06:14:02.938Z,1.60
2023-03-29T06:16:30.205Z,1.65
2023-03-29T06:18:56.720Z,1.63
2023-03-29T06:21:23.434Z,1.75
2023-03-29T06:23:50.460Z,1.70
2023-03-29T06:28:44.273Z,1.85
2023-03-29T06:31:11.045Z,1.70
2023-03-29T06:33:40.206Z,1.73
2023-03-29T06:36:34.426Z,1.92
2023-03-29T06:39:03.905Z,1.60
2023-03-29T06:41:49.861Z,1.60
2023-03-29T06:44:49.508Z,1.80
2023-03-29T06:47:19.061Z,1.85
2023-03-29T06:49:45.531Z,1.80
2023-03-29T06:52:47.895Z,1.75
2023-03-29T06:55:15.830Z,1.80
2023-03-29T06:57:42.630Z,1.90
2023-03-29T07:00:19.621Z,1.77
2023-03-29T07:03:20.477Z,1.77
2023-03-29T07:05:51.993Z,1.77
2023-03-29T07:08:21.398Z,2.05
2023-03-29T07:10:59.411Z,1.95
2023-03-29T07:13:28.719Z,1.85
2023-03-29T07:15:57.466Z,1.60
2023-03-29T07:18:43.012Z,1.70
2023-03-29T07:21:14.136Z,2.00
2023-03-29T07:23:40.831Z,1.63
2023-03-29T07:26:07.886Z,1.70
2023-03-29T07:28:34.402Z,1.60
2023-03-29T07:31:08.042Z,1.90
2023-03-29T07:33:40.870Z,1.90
2023-03-29T07:36:08.713Z,1.60
2023-03-29T07:38:36.813Z,1.80
2023-03-29T07:41:09.571Z,1.50
2023-03-29T07:43:51.939Z,1.70
2023-03-29T07:46:23.157Z,1.65
2023-03-29T07:48:50.112Z,1.50
2023-03-29T07:51:16.830Z,1.50
2023-03-29T07:53:53.841Z,1.55
2023-03-29T07:56:36.053Z,1.75
2023-03-29T07:59:18.598Z,1.42
2023-03-29T08:01:52.027Z,1.48
2023-03-29T08:04:25.387Z,1.98
2023-03-29T08:07:10.357Z,1.70
2023-03-29T08:09:57.392Z,1.60
2023-03-29T08:12:37.705Z,1.63
2023-03-29T08:15:06.440Z,1.73
2023-03-29T08:17:34.991Z,1.50
2023-03-29T08:20:03.091Z,1.80
2023-03-29T08:22:29.778Z,1.38
2023-03-29T08:25:27.011Z,2.17
2023-03-29T08:27:54.323Z,1.88
2023-03-29T08:30:30.531Z,1.75
2023-03-29T08:32:58.236Z,1.80
2023-03-29T08:35:24.834Z,1.77
2023-03-29T08:38:03.388Z,2.05
2023-03-29T08:40:30.265Z,1.80
2023-03-29T08:43:16.878Z,1.73
2023-03-29T08:48:49.642Z,2.10
2023-03-29T08:51:22.812Z,1.85
2023-03-29T08:53:55.876Z,2.22
2023-03-29T08:56:34.028Z,2.15
2023-03-29T08:59:27.568Z,2.40
2023-03-29T09:01:57.189Z,2.40
2023-03-29T09:04:27.015Z,2.40
2023-03-29T09:07:29.176Z,2.30
2023-03-29T09:09:57.070Z,2.17
2023-03-29T09:12:47.006Z,2.30
2023-03-29T09:15:15.512Z,2.20
2023-03-29T09:18:06.265Z,2.40
2023-03-29T09:20:38.890Z,2.22
2023-03-29T09:23:18.022Z,2.10
2023-03-29T09:28:50.344Z,2.08
2023-03-29T09:31:26.719Z,1.98
2023-03-29T09:33:57.380Z,2.30
2023-03-29T09:36:37.040Z,2.10
2023-03-29T09:39:04.059Z,2.10
2023-03-29T09:41:36.610Z,1.92
2023-03-29T09:44:07.356Z,1.80
2023-03-29T09:46:41.709Z,2.00
2023-03-29T09:49:12.402Z,2.10
2023-03-29T09:51:39.847Z,2.05
2023-03-29T09:54:06.393Z,2.40
2023-03-29T09:56:52.605Z,1.90
2023-03-29T09:59:20.864Z,2.28
2023-03-29T10:01:47.418Z,1.70
2023-03-29T10:04:16.756Z,2.05
2023-03-29T10:06:51.848Z,2.00
2023-03-29T10:09:24.111Z,2.20
2023-03-29T10:12:02.331Z,1.90
2023-03-29T10:14:31.826Z,2.50
2023-03-29T10:16:58.472Z,2.00
2023-03-29T10:19:30.783Z,1.70
2023-03-29T10:21:58.901Z,1.83
2023-03-29T10:24:26.516Z,1.95
2023-03-29T10:26:55.707Z,2.30
2023-03-29T10:29:23.838Z,2.00
2023-03-29T10:31:50.783Z,2.42
2023-03-29T10:34:18.086Z,2.15
2023-03-29T10:39:14.327Z,2.65
2023-03-29T10:41:40.967Z,2.58
2023-03-29T10:44:23.915Z,2.60
2023-03-29T10:46:50.460Z,2.88
2023-03-29T10:49:21.057Z,2.60
2023-03-29T10:51:49.405Z,3.00
2023-03-29T10:54:20.401Z,3.15
2023-03-29T10:56:53.777Z,3.38
2023-03-29T10:59:27.553Z,3.95
2023-03-29T11:02:13.227Z,2.92
2023-03-29T11:04:47.643Z,2.85
2023-03-29T11:07:33.092Z,3.78
2023-03-29T11:10:20.153Z,3.30
2023-03-29T11:13:00.340Z,3.05
2023-03-29T11:15:47.481Z,3.65
2023-03-29T11:18:23.307Z,3.13
2023-03-29T11:21:22.121Z,3.13
2023-03-29T11:24:06.994Z,3.22
2023-03-29T11:26:40.889Z,3.20
2023-03-29T11:29:08.182Z,2.95
2023-03-29T11:31:39.060Z,3.42
2023-03-29T11:34:12.539Z,3.13
2023-03-29T11:36:54.073Z,2.60
2023-03-29T11:39:20.541Z,2.80
2023-03-29T11:41:49.830Z,2.78
2023-03-29T11:44:21.930Z,2.60
2023-03-29T11:46:48.384Z,2.47
2023-03-29T11:49:19.444Z,2.83
2023-03-29T11:51:48.913Z,2.92
2023-03-29T11:54:21.883Z,2.45
2023-03-29T11:56:52.287Z,2.70
2023-03-29T11:59:23.340Z,2.80
2023-03-29T12:01:52.846Z,3.03
2023-03-29T12:04:26.143Z,2.55
2023-03-29T12:09:37.853Z,2.88
2023-03-29T12:12:08.147Z,3.15
2023-03-29T12:14:42.333Z,3.28
2023-03-29T12:17:11.725Z,3.13
2023-03-29T12:19:43.629Z,3.00
2023-03-29T12:22:10.530Z,3.20
2023-03-29T12:24:42.281Z,3.33
2023-03-29T12:27:27.557Z,3.42
2023-03-29T12:30:06.342Z,3.53
2023-03-29T12:32:38.800Z,3.28
2023-03-29T12:35:55.402Z,3.30
2023-03-29T12:38:42.419Z,3.03
2023-03-29T12:41:28.325Z,3.22
2023-03-29T12:44:04.182Z,3.33
2023-03-29T12:46:46.284Z,2.95
2023-03-29T12:49:31.739Z,3.20
2023-03-29T12:54:28.156Z,3.30
2023-03-29T12:57:02.285Z,3.30
2023-03-29T12:59:48.659Z,3.28
2023-03-29T13:02:15.279Z,3.03
2023-03-29T13:04:57.959Z,3.28
2023-03-29T13:07:26.495Z,3.22
2023-03-29T13:09:54.452Z,3.75
2023-03-29T13:12:47.666Z,3.03
2023-03-29T13:15:14.347Z,2.78
2023-03-29T13:18:06.999Z,3.42
2023-03-29T13:20:47.049Z,3.40
2023-03-29T13:23:32.284Z,3.50
2023-03-29T13:26:13.043Z,2.90
2023-03-29T13:28:58.503Z,3.00
2023-03-29T13:34:00.650Z,3.70
2023-03-29T13:36:33.198Z,3.50
2023-03-29T13:39:02.718Z,3.72
2023-03-29T13:41:38.443Z,3.33
2023-03-29T13:44:05.306Z,3.10
2023-03-29T13:46:31.937Z,3.45
2023-03-29T13:49:03.131Z,3.40
2023-03-29T13:51:40.396Z,3.05
2023-03-29T13:54:21.300Z,3.22
2023-03-29T13:56:57.114Z,3.47
2023-03-29T13:59:42.299Z,2.85
2023-03-29T14:02:13.472Z,3.63
2023-03-29T14:04:43.115Z,3.33
2023-03-29T14:07:12.474Z,3.38
2023-03-29T14:09:42.222Z,3.13
2023-03-29T14:12:10.965Z,3.45
2023-03-29T14:14:45.168Z,3.50
2023-03-29T14:17:20.321Z,3.40
2023-03-29T14:19:47.542Z,3.72
2023-03-29T14:22:15.621Z,3.15
2023-03-29T14:24:48.069Z,3.60
2023-03-29T14:27:15.978Z,3.72
2023-03-29T14:29:44.657Z,3.78
2023-03-29T14:32:18.111Z,3.15
2023-03-29T14:37:12.125Z,3.30
2023-03-29T14:39:39.820Z,2.90
2023-03-29T14:42:11.992Z,3.15
2023-03-29T14:44:38.503Z,3.28
2023-03-29T14:47:05.092Z,3.25
2023-03-29T14:49:31.768Z,3.20
2023-03-29T14:51:58.788Z,3.30
2023-03-29T14:54:32.897Z,3.20
2023-03-29T14:56:59.972Z,3.03
2023-03-29T14:59:36.947Z,3.50
2023-03-29T15:02:03.813Z,2.97
2023-03-29T15:04:37.388Z,3.30
2023-03-29T15:07:05.003Z,3.55
2023-03-29T15:09:34.032Z,2.75
2023-03-29T15:12:01.622Z,3.60
2023-03-29T15:14:30.294Z,3.03
2023-03-29T15:17:02.171Z,3.20
2023-03-29T15:19:28.740Z,2.83
2023-03-29T15:21:55.142Z,3.08
2023-03-29T15:24:22.073Z,2.92
2023-03-29T15:26:58.140Z,2.58
2023-03-29T15:29:33.126Z,2.83
2023-03-29T15:31:59.643Z,3.40
2023-03-29T15:34:32.937Z,2.58
2023-03-29T15:37:00.255Z,2.33
2023-03-29T15:41:54.954Z,2.97
2023-03-29T15:44:23.261Z,3.15
2023-03-29T15:46:49.828Z,3.20
2023-03-29T15:49:16.299Z,3.00
2023-03-29T15:51:42.783Z,2.75
2023-03-29T15:54:09.435Z,2.90
2023-03-29T15:56:43.578Z,2.50
2023-03-29T15:59:11.754Z,3.00
2023-03-29T16:01:38.884Z,2.67
2023-03-29T16:04:14.057Z,2.60
2023-03-29T16:06:41.030Z,2.70
2023-03-29T16:09:08.707Z,2.90
2023-03-29T16:11:35.321Z,2.80
2023-03-29T16:14:02.791Z,2.70
2023-03-29T16:16:29.331Z,2.63
2023-03-29T16:18:56.042Z,2.90
2023-03-29T16:21:22.906Z,2.65
2023-03-29T16:23:49.402Z,2.70
2023-03-29T16:26:16.614Z,2.85
2023-03-29T16:28:43.535Z,2.70
2023-03-29T16:31:11.748Z,3.20
2023-03-29T16:33:38.342Z,3.47
2023-03-29T16:36:05.186Z,3.50
2023-03-29T16:38:33.721Z,3.17
2023-03-29T16:41:00.592Z,3.30
2023-03-29T16:43:27.677Z,3.40
2023-03-29T16:45:54.305Z,3.40
2023-03-29T16:48:20.907Z,3.88
2023-03-29T16:50:50.109Z,3.45
2023-03-29T16:53:21.290Z,3.83
2023-03-29T16:55:47.826Z,3.50
2023-03-29T16:58:15.428Z,3.45
2023-03-29T17:00:42.186Z,3.60
2023-03-29T17:03:08.972Z,3.40
2023-03-29T17:05:41.169Z,3.40
2023-03-29T17:08:09.962Z,3.70
2023-03-29T17:10:36.675Z,3.60
2023-03-29T17:13:03.108Z,3.33
2023-03-29T17:15:29.651Z,3.30
2023-03-29T17:17:56.202Z,3.40
2023-03-29T17:20:22.637Z,3.78
2023-03-29T17:22:52.087Z,3.13
2023-03-29T17:25:18.796Z,3.20
2023-03-29T17:27:46.151Z,3.03
2023-03-29T17:30:12.797Z,3.10
2023-03-29T17:32:41.483Z,3.20
2023-03-29T17:35:08.947Z,3.00
2023-03-29T17:40:10.166Z,2.75
2023-03-29T17:42:36.667Z,3.10
2023-03-29T17:45:03.877Z,3.38
2023-03-29T17:47:30.586Z,3.20
2023-03-29T17:49:57.181Z,2.70
2023-03-29T17:52:23.604Z,2.70
2023-03-29T17:54:50.423Z,3.20
2023-03-29T17:57:17.198Z,3.15
2023-03-29T17:59:43.832Z,3.08
2023-03-29T18:02:16.877Z,2.58
2023-03-29T18:04:43.478Z,2.50
2023-03-29T18:07:09.953Z,2.35
2023-03-29T18:09:36.478Z,2.97
2023-03-29T18:12:02.908Z,3.15
2023-03-29T18:14:29.487Z,2.58
2023-03-29T18:16:57.070Z,3.10
2023-03-29T18:19:23.618Z,2.50
2023-03-29T18:21:51.107Z,2.95
2023-03-29T18:24:17.596Z,2.58
2023-03-29T18:26:44.184Z,2.40
2023-03-29T18:29:10.667Z,2.55
2023-03-29T18:31:37.228Z,2.75
2023-03-29T18:34:03.754Z,2.60
2023-03-29T18:36:30.425Z,2.45
2023-03-29T18:39:02.382Z,2.85
2023-03-29T18:41:28.876Z,2.60
2023-03-29T18:43:57.328Z,2.63
2023-03-29T18:46:23.906Z,2.60
2023-03-29T18:48:50.431Z,2.65
2023-03-29T18:51:16.963Z,2.75
2023-03-29T18:53:44.326Z,2.70
2023-03-29T18:58:37.606Z,2.78
2023-03-29T19:01:05.324Z,2.70
2023-03-29T19:03:32.791Z,2.20
2023-03-29T19:05:59.409Z,2.47
2023-03-29T19:08:26.304Z,2.25
2023-03-29T19:10:53.277Z,2.50
2023-03-29T19:13:19.779Z,2.45
2023-03-29T19:15:47.563Z,2.50
2023-03-29T19:18:14.089Z,2.30
2023-03-29T19:20:40.890Z,2.60
2023-03-29T19:23:07.464Z,2.53
2023-03-29T19:25:34.101Z,2.00
2023-03-29T19:28:00.601Z,2.55
2023-03-29T19:30:27.114Z,2.38
2023-03-29T19:32:53.582Z,2.50
2023-03-29T19:35:20.302Z,2.15
2023-03-29T19:37:46.809Z,1.90
2023-03-29T19:40:13.565Z,2.17
2023-03-29T19:42:40.575Z,2.30
2023-03-29T19:45:08.335Z,2.50
2023-03-29T19:47:35.732Z,2.40
2023-03-29T19:52:29.202Z,2.33
2023-03-29T19:54:56.608Z,2.30
2023-03-29T19:59:49.550Z,2.15
2023-03-29T20:02:16.630Z,2.60
2023-03-29T20:04:43.071Z,2.35
2023-03-29T20:07:09.592Z,2.42
2023-03-29T20:09:36.633Z,2.10
2023-03-29T20:12:03.365Z,2.17
2023-03-29T20:14:29.885Z,2.40
2023-03-29T20:16:56.366Z,2.55
2023-03-29T20:19:24.667Z,2.38
2023-03-29T20:21:55.116Z,1.80
2023-03-29T20:24:22.117Z,2.20
2023-03-29T20:26:48.530Z,1.90
2023-03-29T20:29:15.307Z,2.20
2023-03-29T20:31:41.826Z,2.00
2023-03-29T20:34:08.360Z,2.30
2023-03-29T20:36:35.745Z,2.22
2023-03-29T20:39:02.848Z,2.28
2023-03-29T20:41:29.347Z,2.05
2023-03-29T20:43:59.930Z,2.33
2023-03-29T20:46:33.569Z,2.00
2023-03-29T20:49:09.415Z,2.05
2023-03-29T20:51:36.828Z,2.10
2023-03-29T20:54:06.104Z,2.03
2023-03-29T20:56:33.886Z,2.08
2023-03-29T20:59:00.764Z,2.53
2023-03-29T21:01:29.556Z,2.17
2023-03-29T21:03:56.401Z,1.88
2023-03-29T21:06:24.351Z,2.20
2023-03-29T21:08:52.499Z,2.10
2023-03-29T21:11:19.972Z,1.80
2023-03-29T21:13:46.475Z,2.13
2023-03-29T21:16:13.321Z,2.50
2023-03-29T21:18:40.389Z,2.00
2023-03-29T21:21:07.990Z,1.67
2023-03-29T21:23:34.988Z,1.90
2023-03-29T21:26:01.585Z,2.30
2023-03-29T21:28:28.242Z,1.95
2023-03-29T21:30:54.787Z,1.90
2023-03-29T21:33:21.760Z,2.10
2023-03-29T21:35:48.517Z,2.03
2023-03-29T21:38:15.583Z,2.10
2023-03-29T21:40:42.054Z,2.05
2023-03-29T21:43:08.584Z,2.00
2023-03-29T21:45:35.265Z,2.22
2023-03-29T21:48:01.962Z,2.75
2023-03-29T21:50:28.408Z,2.38
2023-03-29T21:52:54.810Z,2.33
2023-03-29T21:55:21.270Z,2.30
2023-03-29T21:57:48.154Z,2.10
2023-03-29T22:00:15.513Z,2.38
2023-03-29T22:02:42.655Z,2.40
2023-03-29T22:05:09.385Z,2.25
2023-03-29T22:07:38.748Z,2.28
2023-03-29T22:10:06.664Z,2.50
2023-03-29T22:12:34.507Z,2.80
2023-03-29T22:15:01.550Z,2.05
2023-03-29T22:17:28.553Z,2.10
2023-03-29T22:19:57.077Z,1.80
2023-03-29T22:22:24.343Z,2.00
2023-03-29T22:24:54.717Z,2.00
2023-03-29T22:27:21.898Z,1.85
2023-03-29T22:29:48.455Z,2.17
2023-03-29T22:32:14.992Z,1.90
2023-03-29T22:34:41.700Z,1.95
2023-03-29T22:37:08.131Z,1.90
2023-03-29T22:39:35.057Z,2.15
2023-03-29T22:42:01.514Z,1.90
2023-03-29T22:44:28.010Z,1.67
2023-03-29T22:46:55.649Z,2.22
2023-03-29T22:49:22.146Z,1.90
2023-03-29T22:51:48.820Z,1.67
2023-03-29T22:54:15.214Z,2.03
2023-03-29T22:56:41.830Z,2.15
2023-03-29T22:59:08.297Z,2.10
2023-03-29T23:01:34.825Z,1.70
2023-03-29T23:04:01.431Z,1.70
2023-03-29T23:06:27.888Z,2.10
2023-03-29T23:08:54.320Z,1.80
2023-03-29T23:11:21.420Z,1.80
2023-03-29T23:13:49.062Z,1.90
2023-03-29T23:16:15.859Z,1.63
2023-03-29T23:18:42.291Z,1.83
2023-03-29T23:21:10.426Z,1.65
2023-03-29T23:23:36.966Z,1.80
2023-03-29T23:26:03.983Z,1.50
2023-03-29T23:28:31.363Z,1.50
2023-03-29T23:31:00.356Z,1.90
2023-03-29T23:33:27.333Z,1.50
2023-03-29T23:35:54.149Z,1.58
2023-03-29T23:38:20.892Z,2.00
2023-03-29T23:40:58.952Z,1.60
2023-03-29T23:43:27.225Z,1.45
2023-03-29T23:45:57.358Z,1.40
2023-03-29T23:48:24.260Z,1.40
2023-03-29T23:50:50.760Z,1.70
2023-03-29T23:53:17.308Z,1.48
2023-03-29T23:55:44.554Z,1.67
2023-03-29T23:58:11.721Z,1.50
